createdAt,value
2019-05-19T00:04:31.658Z,13.7
2019-05-19T00:09:37.078Z,13.7
2019-05-19T00:14:42.067Z,13.7
2019-05-19T00:19:47.101Z,13.7
2019-05-19T00:24:52.077Z,13.9
2019-05-19T00:29:57.174Z,13.9
2019-05-19T00:35:02.830Z,14.1
2019-05-19T00:40:08.038Z,14
2019-05-19T00:45:13.110Z,14.1
2019-05-19T00:50:18.356Z,14.2
2019-05-19T00:55:21.884Z,14.2
2019-05-19T01:00:27.297Z,15.1
2019-05-19T01:05:30.824Z,15.5
2019-05-19T01:10:35.748Z,15.7
2019-05-19T01:15:39.296Z,15.8
2019-05-19T01:20:44.751Z,15.7
2019-05-19T01:25:49.774Z,15.5
2019-05-19T01:30:54.872Z,15.4
2019-05-19T01:35:59.992Z,15.2
2019-05-19T01:41:05.131Z,15.2
2019-05-19T01:46:10.257Z,15.3
2019-05-19T01:51:13.850Z,15.4
2019-05-19T01:56:18.926Z,15.4
2019-05-19T02:01:22.728Z,15.4
2019-05-19T02:06:26.247Z,15.4
2019-05-19T02:11:29.788Z,15.2
2019-05-19T02:16:35.013Z,15.1
2019-05-19T02:21:40.487Z,15
2019-05-19T02:26:45.850Z,14.9
2019-05-19T02:31:51.313Z,14.9
2019-05-19T02:36:55.043Z,14.9
2019-05-19T02:42:00.421Z,14.9
2019-05-19T02:47:05.420Z,14.9
2019-05-19T02:52:10.552Z,14.6
2019-05-19T02:57:15.713Z,14.7
2019-05-19T03:02:20.762Z,14.7
2019-05-19T03:07:25.829Z,14.6
2019-05-19T03:12:31.116Z,14.6
2019-05-19T03:17:36.066Z,14.4
2019-05-19T03:22:41.192Z,14.3
2019-05-19T03:27:46.507Z,14.2
2019-05-19T03:32:50.345Z,14.2
2019-05-19T03:37:55.244Z,14.2
2019-05-19T03:42:59.085Z,14.3
2019-05-19T03:48:04.120Z,14.3
2019-05-19T03:53:09.162Z,14.3
2019-05-19T03:58:12.852Z,14.4
2019-05-19T04:03:18.521Z,14.6
2019-05-19T04:08:23.707Z,14.6
2019-05-19T04:13:28.965Z,14.6
2019-05-19T04:18:33.856Z,14.5
2019-05-19T04:23:38.966Z,14.5
2019-05-19T04:28:44.043Z,14.5
2019-05-19T04:33:49.156Z,14.6
2019-05-19T04:38:54.070Z,14.6
2019-05-19T04:43:59.304Z,14.5
2019-05-19T04:49:04.670Z,14.5
2019-05-19T04:59:12.347Z,14.4
2019-05-19T05:04:16.181Z,14.4
2019-05-19T05:09:21.161Z,14.5
2019-05-19T05:14:26.732Z,15.1
2019-05-19T05:19:31.850Z,15
2019-05-19T05:24:37.084Z,15.6
2019-05-19T05:29:42.292Z,16.1
2019-05-19T05:34:47.393Z,16.2
2019-05-19T05:39:52.365Z,16.7
2019-05-19T05:44:57.758Z,17.6
2019-05-19T05:50:02.815Z,17.7
2019-05-19T05:55:08.037Z,17.9
2019-05-19T06:00:16.916Z,18.6
2019-05-19T06:05:22.571Z,18.9
2019-05-19T06:10:27.652Z,18.9
2019-05-19T06:15:32.862Z,19.3
2019-05-19T06:20:39.946Z,19.8
2019-05-19T06:30:48.653Z,20.4
2019-05-19T06:35:53.708Z,20.3
2019-05-19T06:40:53.643Z,20.4
2019-05-19T06:45:58.558Z,20.6
2019-05-19T06:51:02.040Z,20.8
2019-05-19T06:56:07.101Z,21.5
2019-05-19T07:01:12.064Z,21.5
2019-05-19T07:06:15.576Z,21.4
2019-05-19T07:11:19.123Z,21.7
2019-05-19T07:16:22.919Z,21.4
2019-05-19T07:21:28.535Z,22.3
2019-05-19T07:26:33.757Z,22.3
2019-05-19T07:31:38.782Z,23.3
2019-05-19T07:36:43.834Z,23.2
2019-05-19T07:41:48.738Z,22.8
2019-05-19T07:46:53.756Z,22.2
2019-05-19T07:51:58.715Z,22.8
2019-05-19T07:57:03.916Z,23
2019-05-19T08:02:13.752Z,23.2
2019-05-19T08:07:18.818Z,22.8
2019-05-19T08:12:23.869Z,24.2
2019-05-19T08:17:28.997Z,24.7
2019-05-19T08:22:34.001Z,24.6
2019-05-19T08:27:39.106Z,25.9
2019-05-19T08:32:44.042Z,25.4
2019-05-19T08:37:49.094Z,25.8
2019-05-19T08:42:54.180Z,25.8
2019-05-19T08:47:59.432Z,25.8
2019-05-19T08:53:05.024Z,25.6
2019-05-19T08:58:10.083Z,25.5
2019-05-19T09:03:15.037Z,25.4
2019-05-19T09:08:20.062Z,25.3
2019-05-19T09:13:25.069Z,25.9
2019-05-19T09:18:28.847Z,26.7
2019-05-19T09:23:33.796Z,26.5
2019-05-19T09:28:38.950Z,27
2019-05-19T09:33:44.012Z,26
2019-05-19T09:38:48.974Z,28.2
2019-05-19T09:43:56.887Z,28.7
2019-05-19T09:49:02.054Z,29.6
2019-05-19T09:54:06.978Z,28.8
2019-05-19T09:59:12.677Z,29.3
2019-05-19T10:04:17.499Z,29.2
2019-05-19T10:09:22.471Z,27.8
2019-05-19T10:14:27.278Z,28.9
2019-05-19T10:19:32.577Z,30
2019-05-19T10:24:36.541Z,27.3
2019-05-19T10:29:41.565Z,27.6
2019-05-19T10:34:46.639Z,29.4
2019-05-19T10:39:51.660Z,28.5
2019-05-19T10:44:56.615Z,29.6
2019-05-19T10:50:01.862Z,29.8
2019-05-19T10:55:08.307Z,29.5
2019-05-19T11:00:13.368Z,29.8
2019-05-19T11:05:19.642Z,30.9
2019-05-19T11:10:24.814Z,29
2019-05-19T11:15:29.680Z,29.8
2019-05-19T11:20:33.190Z,31.3
2019-05-19T11:25:51.967Z,28.9
2019-05-19T11:30:37.629Z,29.1
2019-05-19T11:35:42.444Z,31
2019-05-19T11:40:47.614Z,28.9
2019-05-19T11:45:52.642Z,27.8
2019-05-19T11:51:00.533Z,28.2
2019-05-19T11:56:12.379Z,29.2
2019-05-19T12:01:07.518Z,29.2
2019-05-19T12:06:15.628Z,28.3
2019-05-19T12:11:20.532Z,26.3
2019-05-19T12:16:25.432Z,26.4
2019-05-19T12:21:28.949Z,25.9
2019-05-19T12:26:36.601Z,27.1
2019-05-19T12:31:41.749Z,27.1
2019-05-19T12:36:46.638Z,25.2
2019-05-19T12:41:51.936Z,24.6
2019-05-19T12:46:56.865Z,24.9
2019-05-19T12:52:01.893Z,24.8
2019-05-19T12:57:06.953Z,24.7
2019-05-19T13:02:12.542Z,24.6
2019-05-19T13:07:18.145Z,24.7
2019-05-19T13:12:23.323Z,24.7
2019-05-19T13:17:29.378Z,24.7
2019-05-19T13:22:34.659Z,24.3
2019-05-19T13:27:42.395Z,25
2019-05-19T13:32:47.574Z,25
2019-05-19T13:37:53.058Z,24.5
2019-05-19T13:42:58.110Z,24.4
2019-05-19T13:48:03.665Z,24.4
2019-05-19T13:53:08.725Z,24.4
2019-05-19T13:58:16.459Z,24.3
2019-05-19T14:03:21.610Z,24.1
2019-05-19T14:08:28.347Z,24
2019-05-19T14:13:33.381Z,24
2019-05-19T14:18:38.467Z,24.2
2019-05-19T14:23:43.539Z,23.8
2019-05-19T14:28:48.597Z,23.8
2019-05-19T14:33:53.577Z,23.7
2019-05-19T14:38:58.676Z,23.7
2019-05-19T14:44:04.157Z,24
2019-05-19T14:49:13.965Z,24
2019-05-19T14:54:13.889Z,24
2019-05-19T14:59:18.902Z,23.6
2019-05-19T15:04:24.059Z,23.3
2019-05-19T15:09:29.256Z,23.1
2019-05-19T15:14:34.463Z,23
2019-05-19T15:19:39.380Z,22.9
2019-05-19T15:24:45.209Z,22.7
2019-05-19T15:29:50.554Z,22.7
2019-05-19T15:45:05.953Z,21.8
2019-05-19T15:50:11.090Z,21.6
2019-05-19T15:55:16.329Z,21.5
2019-05-19T16:00:21.211Z,21.2
2019-05-19T16:05:26.260Z,21.1
2019-05-19T16:10:32.877Z,21.2
2019-05-19T16:15:39.390Z,21.2
2019-05-19T16:20:44.327Z,21.2
2019-05-19T16:25:49.312Z,21.2
2019-05-19T16:30:54.342Z,21.4
2019-05-19T16:35:59.560Z,21.6
2019-05-19T16:41:04.534Z,21.7
2019-05-19T16:46:14.535Z,21.8
2019-05-19T16:51:22.690Z,21.3
2019-05-19T16:56:28.475Z,21.3
2019-05-19T17:01:34.021Z,21.4
2019-05-19T17:06:43.373Z,21.2
2019-05-19T17:11:51.149Z,21.2
2019-05-19T17:16:56.353Z,21.2
2019-05-19T17:22:01.483Z,21
2019-05-19T17:27:06.573Z,20.9
2019-05-19T17:32:11.598Z,20.7
2019-05-19T17:37:14.737Z,20.4
2019-05-19T17:42:19.518Z,20.3
2019-05-19T17:47:24.863Z,20
2019-05-19T17:52:30.851Z,19.6
2019-05-19T17:57:30.340Z,19.5
2019-05-19T18:02:35.273Z,19.4
2019-05-19T18:07:39.180Z,19.3
2019-05-19T18:12:42.619Z,19.1
2019-05-19T18:17:48.993Z,18.9
2019-05-19T18:23:00.096Z,18.7
2019-05-19T18:28:05.003Z,18.5
2019-05-19T18:33:12.906Z,18.5
2019-05-19T18:38:16.483Z,18.4
2019-05-19T18:43:22.542Z,18.4
2019-05-19T18:48:27.867Z,18.3
2019-05-19T18:53:32.912Z,18.3
2019-05-19T18:58:38.260Z,18.2
2019-05-19T19:03:43.598Z,18
2019-05-19T19:08:48.889Z,17.8
2019-05-19T19:13:54.083Z,17.7
2019-05-19T19:18:59.304Z,17.6
2019-05-19T19:24:04.631Z,17.6
2019-05-19T19:29:10.398Z,17.5
2019-05-19T19:34:15.289Z,17.5
2019-05-19T19:39:20.390Z,17.4
2019-05-19T19:44:25.433Z,17.4
2019-05-19T19:49:30.474Z,17.4
2019-05-19T19:54:34.141Z,17.2
2019-05-19T19:59:39.209Z,17.1
2019-05-19T20:04:44.411Z,17
2019-05-19T20:09:50.052Z,16.5
2019-05-19T20:14:55.155Z,16.3
2019-05-19T20:20:00.328Z,16.1
2019-05-19T20:25:00.316Z,16
2019-05-19T20:30:05.540Z,15.8
2019-05-19T20:35:10.892Z,15.8
2019-05-19T20:40:15.892Z,15.7
2019-05-19T20:45:21.129Z,15.5
2019-05-19T20:50:26.363Z,15.3
2019-05-19T20:55:31.412Z,15.2
2019-05-19T21:00:52.969Z,15.3
2019-05-19T21:05:38.044Z,15.2
2019-05-19T21:10:42.998Z,15.3
2019-05-19T21:15:48.220Z,15.2
2019-05-19T21:20:56.168Z,15.1
2019-05-19T21:26:01.335Z,15.1
2019-05-19T21:31:08.163Z,14.9
2019-05-19T21:36:13.108Z,14.9
2019-05-19T21:41:18.179Z,14.9
2019-05-19T21:46:23.115Z,14.8
2019-05-19T21:51:28.065Z,14.8
2019-05-19T21:56:33.013Z,14.8
2019-05-19T22:01:43.484Z,14.7
2019-05-19T22:06:38.415Z,14.7
2019-05-19T22:11:43.851Z,14.7
2019-05-19T22:16:49.197Z,14.6
2019-05-19T22:21:54.349Z,14.6
2019-05-19T22:26:59.281Z,14.5
2019-05-19T22:32:04.711Z,14.5
2019-05-19T22:37:09.603Z,14.5
2019-05-19T22:42:14.674Z,14.5
2019-05-19T22:47:19.860Z,14.6
2019-05-19T22:52:24.989Z,14.6
2019-05-19T22:57:29.887Z,14.5
2019-05-19T23:02:35.372Z,14.5
2019-05-19T23:07:39.274Z,14.5
2019-05-19T23:12:42.974Z,14.4
2019-05-19T23:17:48.183Z,14.2
2019-05-19T23:22:53.180Z,14.2
2019-05-19T23:27:58.262Z,14.2
2019-05-19T23:33:03.353Z,14.1
2019-05-19T23:38:08.412Z,14.1
2019-05-19T23:43:13.621Z,14.1
2019-05-19T23:48:17.272Z,14
2019-05-19T23:53:22.619Z,14
2019-05-19T23:58:27.527Z,14
